sensor_id;sensor_type;location;lat;lon;timestamp;P1;durP1;ratioP1;P2;durP2;ratioP2
13805;SDS011;6974;53.606;9.872;2023-11-21T00:02:16;23.17;;;16.53;;
13805;SDS011;6974;53.606;9.872;2023-11-21T00:04:44;21.83;;;15.57;;
13805;SDS011;6974;53.606;9.872;2023-11-21T00:07:13;21.17;;;16.00;;
13805;SDS011;6974;53.606;9.872;2023-11-21T00:09:40;19.23;;;14.87;;
13805;SDS011;6974;53.606;9.872;2023-11-21T00:12:08;19.23;;;14.13;;
13805;SDS011;6974;53.606;9.872;2023-11-21T00:14:35;19.60;;;13.97;;
13805;SDS011;6974;53.606;9.872;2023-11-21T00:17:03;17.53;;;13.60;;
13805;SDS011;6974;53.606;9.872;2023-11-21T00:19:30;17.70;;;12.77;;
13805;SDS011;6974;53.606;9.872;2023-11-21T00:21:58;16.20;;;13.20;;
13805;SDS011;6974;53.606;9.872;2023-11-21T00:24:25;18.00;;;13.20;;
13805;SDS011;6974;53.606;9.872;2023-11-21T00:26:52;18.90;;;13.47;;
13805;SDS011;6974;53.606;9.872;2023-11-21T00:29:19;17.83;;;14.00;;
13805;SDS011;6974;53.606;9.872;2023-11-21T00:31:47;21.37;;;14.17;;
13805;SDS011;6974;53.606;9.872;2023-11-21T00:34:14;22.07;;;13.67;;
13805;SDS011;6974;53.606;9.872;2023-11-21T00:36:40;20.37;;;14.57;;
13805;SDS011;6974;53.606;9.872;2023-11-21T00:39:09;19.83;;;14.73;;
13805;SDS011;6974;53.606;9.872;2023-11-21T00:41:36;18.60;;;14.90;;
13805;SDS011;6974;53.606;9.872;2023-11-21T00:44:04;21.10;;;14.73;;
13805;SDS011;6974;53.606;9.872;2023-11-21T00:46:31;20.43;;;15.57;;
13805;SDS011;6974;53.606;9.872;2023-11-21T00:48:58;21.37;;;15.17;;
13805;SDS011;6974;53.606;9.872;2023-11-21T00:51:25;22.37;;;15.60;;
13805;SDS011;6974;53.606;9.872;2023-11-21T00:53:52;20.03;;;15.20;;
13805;SDS011;6974;53.606;9.872;2023-11-21T00:56:20;21.97;;;15.17;;
13805;SDS011;6974;53.606;9.872;2023-11-21T00:58:47;19.93;;;15.23;;
13805;SDS011;6974;53.606;9.872;2023-11-21T01:01:15;18.03;;;14.77;;
13805;SDS011;6974;53.606;9.872;2023-11-21T01:03:42;19.20;;;14.53;;
13805;SDS011;6974;53.606;9.872;2023-11-21T01:06:09;19.30;;;15.70;;
13805;SDS011;6974;53.606;9.872;2023-11-21T01:08:36;20.77;;;15.77;;
13805;SDS011;6974;53.606;9.872;2023-11-21T01:11:02;20.47;;;15.00;;
13805;SDS011;6974;53.606;9.872;2023-11-21T01:13:34;19.60;;;15.23;;
13805;SDS011;6974;53.606;9.872;2023-11-21T01:16:01;21.13;;;15.83;;
13805;SDS011;6974;53.606;9.872;2023-11-21T01:18:28;19.30;;;15.67;;
13805;SDS011;6974;53.606;9.872;2023-11-21T01:20:55;22.67;;;17.20;;
13805;SDS011;6974;53.606;9.872;2023-11-21T01:23:22;20.70;;;16.17;;
13805;SDS011;6974;53.606;9.872;2023-11-21T01:25:49;23.67;;;17.40;;
13805;SDS011;6974;53.606;9.872;2023-11-21T01:28:16;24.17;;;17.43;;
13805;SDS011;6974;53.606;9.872;2023-11-21T01:30:46;26.00;;;17.57;;
13805;SDS011;6974;53.606;9.872;2023-11-21T01:33:12;20.77;;;16.67;;
13805;SDS011;6974;53.606;9.872;2023-11-21T01:35:40;20.87;;;16.27;;
13805;SDS011;6974;53.606;9.872;2023-11-21T01:38:08;21.07;;;15.87;;
13805;SDS011;6974;53.606;9.872;2023-11-21T01:40:35;20.37;;;14.90;;
13805;SDS011;6974;53.606;9.872;2023-11-21T01:43:01;20.80;;;15.13;;
13805;SDS011;6974;53.606;9.872;2023-11-21T01:45:28;19.07;;;14.93;;
13805;SDS011;6974;53.606;9.872;2023-11-21T01:47:59;17.90;;;12.60;;
13805;SDS011;6974;53.606;9.872;2023-11-21T01:50:26;14.97;;;12.40;;
13805;SDS011;6974;53.606;9.872;2023-11-21T01:52:54;20.00;;;12.73;;
13805;SDS011;6974;53.606;9.872;2023-11-21T01:55:21;15.30;;;12.37;;
13805;SDS011;6974;53.606;9.872;2023-11-21T01:57:48;14.13;;;12.33;;
13805;SDS011;6974;53.606;9.872;2023-11-21T02:00:16;16.53;;;12.13;;
13805;SDS011;6974;53.606;9.872;2023-11-21T02:02:44;16.23;;;12.30;;
13805;SDS011;6974;53.606;9.872;2023-11-21T02:05:13;15.23;;;11.53;;
13805;SDS011;6974;53.606;9.872;2023-11-21T02:07:42;14.30;;;10.67;;
13805;SDS011;6974;53.606;9.872;2023-11-21T02:10:09;14.03;;;11.33;;
13805;SDS011;6974;53.606;9.872;2023-11-21T02:12:39;13.77;;;10.67;;
13805;SDS011;6974;53.606;9.872;2023-11-21T02:15:07;12.23;;;10.93;;
13805;SDS011;6974;53.606;9.872;2023-11-21T02:17:40;11.27;;;9.77;;
13805;SDS011;6974;53.606;9.872;2023-11-21T02:20:09;12.43;;;10.23;;
13805;SDS011;6974;53.606;9.872;2023-11-21T02:22:41;12.43;;;9.53;;
13805;SDS011;6974;53.606;9.872;2023-11-21T02:25:10;10.27;;;8.20;;
13805;SDS011;6974;53.606;9.872;2023-11-21T02:27:37;10.70;;;9.10;;
13805;SDS011;6974;53.606;9.872;2023-11-21T02:30:04;9.43;;;8.33;;
13805;SDS011;6974;53.606;9.872;2023-11-21T02:32:32;8.87;;;7.87;;
13805;SDS011;6974;53.606;9.872;2023-11-21T02:34:59;8.87;;;7.60;;
13805;SDS011;6974;53.606;9.872;2023-11-21T02:37:27;9.30;;;8.00;;
13805;SDS011;6974;53.606;9.872;2023-11-21T02:39:54;11.53;;;8.27;;
13805;SDS011;6974;53.606;9.872;2023-11-21T02:42:22;8.50;;;7.60;;
13805;SDS011;6974;53.606;9.872;2023-11-21T02:44:49;9.43;;;7.63;;
13805;SDS011;6974;53.606;9.872;2023-11-21T02:47:16;8.00;;;6.90;;
13805;SDS011;6974;53.606;9.872;2023-11-21T02:49:43;7.60;;;6.90;;
13805;SDS011;6974;53.606;9.872;2023-11-21T02:52:09;7.93;;;6.90;;
13805;SDS011;6974;53.606;9.872;2023-11-21T02:54:36;7.73;;;6.83;;
13805;SDS011;6974;53.606;9.872;2023-11-21T02:57:03;9.33;;;7.47;;
13805;SDS011;6974;53.606;9.872;2023-11-21T02:59:32;7.53;;;6.70;;
13805;SDS011;6974;53.606;9.872;2023-11-21T03:01:59;7.83;;;7.07;;
13805;SDS011;6974;53.606;9.872;2023-11-21T03:04:25;7.93;;;7.13;;
13805;SDS011;6974;53.606;9.872;2023-11-21T03:06:52;7.87;;;7.07;;
13805;SDS011;6974;53.606;9.872;2023-11-21T03:09:19;8.33;;;7.13;;
13805;SDS011;6974;53.606;9.872;2023-11-21T03:11:46;10.00;;;8.20;;
13805;SDS011;6974;53.606;9.872;2023-11-21T03:14:13;7.83;;;7.03;;
13805;SDS011;6974;53.606;9.872;2023-11-21T03:16:41;8.40;;;7.10;;
13805;SDS011;6974;53.606;9.872;2023-11-21T03:19:09;9.20;;;7.57;;
13805;SDS011;6974;53.606;9.872;2023-11-21T03:21:36;8.57;;;7.67;;
13805;SDS011;6974;53.606;9.872;2023-11-21T03:24:03;8.57;;;7.47;;
13805;SDS011;6974;53.606;9.872;2023-11-21T03:26:31;8.50;;;7.50;;
13805;SDS011;6974;53.606;9.872;2023-11-21T03:28:58;9.37;;;7.40;;
13805;SDS011;6974;53.606;9.872;2023-11-21T03:31:25;8.67;;;7.70;;
13805;SDS011;6974;53.606;9.872;2023-11-21T03:33:53;9.60;;;8.07;;
13805;SDS011;6974;53.606;9.872;2023-11-21T03:36:20;7.87;;;7.07;;
13805;SDS011;6974;53.606;9.872;2023-11-21T03:38:47;8.63;;;7.30;;
13805;SDS011;6974;53.606;9.872;2023-11-21T03:41:14;9.60;;;8.00;;
13805;SDS011;6974;53.606;9.872;2023-11-21T03:43:41;11.33;;;8.03;;
13805;SDS011;6974;53.606;9.872;2023-11-21T03:46:08;9.07;;;8.17;;
13805;SDS011;6974;53.606;9.872;2023-11-21T03:48:35;10.63;;;7.93;;
13805;SDS011;6974;53.606;9.872;2023-11-21T03:51:03;8.97;;;7.87;;
13805;SDS011;6974;53.606;9.872;2023-11-21T03:53:30;8.83;;;7.83;;
13805;SDS011;6974;53.606;9.872;2023-11-21T03:55:57;10.33;;;7.63;;
13805;SDS011;6974;53.606;9.872;2023-11-21T03:58:24;11.10;;;7.83;;
13805;SDS011;6974;53.606;9.872;2023-11-21T04:00:51;9.97;;;8.63;;
13805;SDS011;6974;53.606;9.872;2023-11-21T04:03:18;9.37;;;8.37;;
13805;SDS011;6974;53.606;9.872;2023-11-21T04:05:45;11.80;;;8.20;;
13805;SDS011;6974;53.606;9.872;2023-11-21T04:08:13;8.87;;;7.97;;
13805;SDS011;6974;53.606;9.872;2023-11-21T04:10:40;8.83;;;7.93;;
13805;SDS011;6974;53.606;9.872;2023-11-21T04:13:07;9.23;;;8.23;;
13805;SDS011;6974;53.606;9.872;2023-11-21T04:15:34;8.57;;;7.67;;
13805;SDS011;6974;53.606;9.872;2023-11-21T04:18:00;11.17;;;8.93;;
13805;SDS011;6974;53.606;9.872;2023-11-21T04:20:28;11.03;;;8.63;;
13805;SDS011;6974;53.606;9.872;2023-11-21T04:22:55;10.30;;;8.40;;
13805;SDS011;6974;53.606;9.872;2023-11-21T04:25:23;10.93;;;8.40;;
13805;SDS011;6974;53.606;9.872;2023-11-21T04:27:50;10.37;;;8.40;;
13805;SDS011;6974;53.606;9.872;2023-11-21T04:30:16;9.80;;;8.43;;
13805;SDS011;6974;53.606;9.872;2023-11-21T04:32:43;9.27;;;8.27;;
13805;SDS011;6974;53.606;9.872;2023-11-21T04:35:10;12.37;;;9.10;;
13805;SDS011;6974;53.606;9.872;2023-11-21T04:37:37;10.63;;;8.13;;
13805;SDS011;6974;53.606;9.872;2023-11-21T04:40:05;10.33;;;8.87;;
13805;SDS011;6974;53.606;9.872;2023-11-21T04:42:35;11.03;;;8.77;;
13805;SDS011;6974;53.606;9.872;2023-11-21T04:45:02;10.23;;;8.93;;
13805;SDS011;6974;53.606;9.872;2023-11-21T04:47:34;10.83;;;8.53;;
13805;SDS011;6974;53.606;9.872;2023-11-21T04:50:00;9.63;;;8.40;;
13805;SDS011;6974;53.606;9.872;2023-11-21T04:52:28;10.00;;;8.77;;
13805;SDS011;6974;53.606;9.872;2023-11-21T04:54:55;10.90;;;9.03;;
13805;SDS011;6974;53.606;9.872;2023-11-21T04:57:23;10.13;;;8.97;;
13805;SDS011;6974;53.606;9.872;2023-11-21T04:59:51;10.57;;;9.23;;
13805;SDS011;6974;53.606;9.872;2023-11-21T05:02:18;10.60;;;9.00;;
13805;SDS011;6974;53.606;9.872;2023-11-21T05:04:46;10.70;;;9.33;;
13805;SDS011;6974;53.606;9.872;2023-11-21T05:07:13;12.13;;;8.83;;
13805;SDS011;6974;53.606;9.872;2023-11-21T05:09:41;11.10;;;8.97;;
13805;SDS011;6974;53.606;9.872;2023-11-21T05:12:11;9.50;;;8.57;;
13805;SDS011;6974;53.606;9.872;2023-11-21T05:14:38;9.60;;;7.90;;
13805;SDS011;6974;53.606;9.872;2023-11-21T05:17:06;12.03;;;8.63;;
13805;SDS011;6974;53.606;9.872;2023-11-21T05:19:33;9.40;;;8.50;;
13805;SDS011;6974;53.606;9.872;2023-11-21T05:22:01;8.80;;;7.90;;
13805;SDS011;6974;53.606;9.872;2023-11-21T05:24:28;9.30;;;7.83;;
13805;SDS011;6974;53.606;9.872;2023-11-21T05:26:55;9.20;;;8.07;;
13805;SDS011;6974;53.606;9.872;2023-11-21T05:29:22;9.40;;;7.77;;
13805;SDS011;6974;53.606;9.872;2023-11-21T05:31:50;9.13;;;8.17;;
13805;SDS011;6974;53.606;9.872;2023-11-21T05:34:19;8.50;;;7.60;;
13805;SDS011;6974;53.606;9.872;2023-11-21T05:36:48;8.80;;;7.87;;
13805;SDS011;6974;53.606;9.872;2023-11-21T05:39:15;10.97;;;8.50;;
13805;SDS011;6974;53.606;9.872;2023-11-21T05:41:42;11.20;;;8.10;;
13805;SDS011;6974;53.606;9.872;2023-11-21T05:44:09;10.47;;;8.50;;
13805;SDS011;6974;53.606;9.872;2023-11-21T05:46:37;9.97;;;8.17;;
13805;SDS011;6974;53.606;9.872;2023-11-21T05:49:04;9.93;;;8.57;;
13805;SDS011;6974;53.606;9.872;2023-11-21T05:51:34;9.23;;;8.33;;
13805;SDS011;6974;53.606;9.872;2023-11-21T05:54:01;9.90;;;8.50;;
13805;SDS011;6974;53.606;9.872;2023-11-21T05:56:28;9.40;;;8.40;;
13805;SDS011;6974;53.606;9.872;2023-11-21T05:58:55;10.37;;;8.87;;
13805;SDS011;6974;53.606;9.872;2023-11-21T06:01:21;10.97;;;9.03;;
13805;SDS011;6974;53.606;9.872;2023-11-21T06:03:48;9.60;;;8.07;;
13805;SDS011;6974;53.606;9.872;2023-11-21T06:06:15;11.23;;;8.90;;
13805;SDS011;6974;53.606;9.872;2023-11-21T06:08:43;9.07;;;8.17;;
13805;SDS011;6974;53.606;9.872;2023-11-21T06:11:10;9.63;;;8.13;;
13805;SDS011;6974;53.606;9.872;2023-11-21T06:13:37;10.80;;;8.23;;
13805;SDS011;6974;53.606;9.872;2023-11-21T06:16:04;11.93;;;8.37;;
13805;SDS011;6974;53.606;9.872;2023-11-21T06:18:32;9.60;;;8.13;;
13805;SDS011;6974;53.606;9.872;2023-11-21T06:21:00;11.53;;;8.03;;
13805;SDS011;6974;53.606;9.872;2023-11-21T06:23:26;10.03;;;8.70;;
13805;SDS011;6974;53.606;9.872;2023-11-21T06:25:55;11.07;;;9.07;;
13805;SDS011;6974;53.606;9.872;2023-11-21T06:28:22;9.63;;;8.33;;
13805;SDS011;6974;53.606;9.872;2023-11-21T06:30:49;11.43;;;9.27;;
13805;SDS011;6974;53.606;9.872;2023-11-21T06:33:16;13.53;;;9.23;;
13805;SDS011;6974;53.606;9.872;2023-11-21T06:35:42;9.63;;;8.27;;
13805;SDS011;6974;53.606;9.872;2023-11-21T06:38:09;10.87;;;9.27;;
13805;SDS011;6974;53.606;9.872;2023-11-21T06:40:36;9.67;;;8.67;;
13805;SDS011;6974;53.606;9.872;2023-11-21T06:43:04;11.67;;;9.27;;
13805;SDS011;6974;53.606;9.872;2023-11-21T06:45:32;9.70;;;8.73;;
13805;SDS011;6974;53.606;9.872;2023-11-21T06:47:59;9.73;;;8.80;;
13805;SDS011;6974;53.606;9.872;2023-11-21T06:50:26;9.87;;;8.53;;
13805;SDS011;6974;53.606;9.872;2023-11-21T06:52:53;10.53;;;9.43;;
13805;SDS011;6974;53.606;9.872;2023-11-21T06:55:20;9.80;;;8.80;;
13805;SDS011;6974;53.606;9.872;2023-11-21T06:57:47;10.77;;;9.27;;
13805;SDS011;6974;53.606;9.872;2023-11-21T07:00:17;9.53;;;8.50;;
13805;SDS011;6974;53.606;9.872;2023-11-21T07:02:44;10.13;;;9.07;;
13805;SDS011;6974;53.606;9.872;2023-11-21T07:05:10;10.20;;;9.10;;
13805;SDS011;6974;53.606;9.872;2023-11-21T07:07:39;13.23;;;8.33;;
13805;SDS011;6974;53.606;9.872;2023-11-21T07:10:06;10.70;;;9.00;;
13805;SDS011;6974;53.606;9.872;2023-11-21T07:12:34;10.43;;;8.87;;
13805;SDS011;6974;53.606;9.872;2023-11-21T07:15:01;9.80;;;8.80;;
13805;SDS011;6974;53.606;9.872;2023-11-21T07:17:31;9.37;;;8.40;;
13805;SDS011;6974;53.606;9.872;2023-11-21T07:20:00;9.30;;;8.40;;
13805;SDS011;6974;53.606;9.872;2023-11-21T07:22:27;9.20;;;8.30;;
13805;SDS011;6974;53.606;9.872;2023-11-21T07:24:53;9.93;;;8.43;;
13805;SDS011;6974;53.606;9.872;2023-11-21T07:27:21;9.73;;;8.13;;
13805;SDS011;6974;53.606;9.872;2023-11-21T07:29:48;9.47;;;8.17;;
13805;SDS011;6974;53.606;9.872;2023-11-21T07:32:15;9.43;;;8.40;;
13805;SDS011;6974;53.606;9.872;2023-11-21T07:34:43;9.57;;;8.57;;
13805;SDS011;6974;53.606;9.872;2023-11-21T07:37:10;10.27;;;8.30;;
13805;SDS011;6974;53.606;9.872;2023-11-21T07:39:37;10.00;;;8.53;;
13805;SDS011;6974;53.606;9.872;2023-11-21T07:42:07;8.87;;;7.67;;
13805;SDS011;6974;53.606;9.872;2023-11-21T07:44:34;9.10;;;7.73;;
13805;SDS011;6974;53.606;9.872;2023-11-21T07:47:01;8.97;;;8.07;;
13805;SDS011;6974;53.606;9.872;2023-11-21T07:49:28;9.10;;;7.53;;
13805;SDS011;6974;53.606;9.872;2023-11-21T07:51:56;9.90;;;8.90;;
13805;SDS011;6974;53.606;9.872;2023-11-21T07:54:23;8.73;;;7.83;;
13805;SDS011;6974;53.606;9.872;2023-11-21T07:56:49;10.57;;;7.60;;
13805;SDS011;6974;53.606;9.872;2023-11-21T07:59:16;8.80;;;7.70;;
13805;SDS011;6974;53.606;9.872;2023-11-21T08:01:43;9.03;;;7.77;;
13805;SDS011;6974;53.606;9.872;2023-11-21T08:04:11;10.63;;;7.93;;
13805;SDS011;6974;53.606;9.872;2023-11-21T08:06:38;9.00;;;7.40;;
13805;SDS011;6974;53.606;9.872;2023-11-21T08:09:07;10.27;;;8.17;;
13805;SDS011;6974;53.606;9.872;2023-11-21T08:11:34;9.87;;;8.00;;
13805;SDS011;6974;53.606;9.872;2023-11-21T08:14:01;11.37;;;7.77;;
13805;SDS011;6974;53.606;9.872;2023-11-21T08:16:27;10.80;;;8.37;;
13805;SDS011;6974;53.606;9.872;2023-11-21T08:18:54;10.37;;;8.27;;
13805;SDS011;6974;53.606;9.872;2023-11-21T08:21:21;8.43;;;7.50;;
13805;SDS011;6974;53.606;9.872;2023-11-21T08:23:49;9.40;;;7.90;;
13805;SDS011;6974;53.606;9.872;2023-11-21T08:26:21;9.23;;;8.23;;
13805;SDS011;6974;53.606;9.872;2023-11-21T08:28:48;9.10;;;8.20;;
13805;SDS011;6974;53.606;9.872;2023-11-21T08:31:17;8.30;;;7.30;;
13805;SDS011;6974;53.606;9.872;2023-11-21T08:33:49;8.90;;;8.00;;
13805;SDS011;6974;53.606;9.872;2023-11-21T08:36:16;10.73;;;7.90;;
13805;SDS011;6974;53.606;9.872;2023-11-21T08:38:43;8.27;;;7.40;;
13805;SDS011;6974;53.606;9.872;2023-11-21T08:41:10;9.00;;;7.30;;
13805;SDS011;6974;53.606;9.872;2023-11-21T08:43:38;8.03;;;7.27;;
13805;SDS011;6974;53.606;9.872;2023-11-21T08:46:05;8.83;;;7.30;;
13805;SDS011;6974;53.606;9.872;2023-11-21T08:48:34;7.47;;;6.77;;
13805;SDS011;6974;53.606;9.872;2023-11-21T08:51:01;8.83;;;6.60;;
13805;SDS011;6974;53.606;9.872;2023-11-21T08:53:29;7.80;;;7.00;;
13805;SDS011;6974;53.606;9.872;2023-11-21T08:55:56;8.63;;;6.77;;
13805;SDS011;6974;53.606;9.872;2023-11-21T08:58:23;7.60;;;6.80;;
13805;SDS011;6974;53.606;9.872;2023-11-21T09:00:52;7.63;;;6.83;;
13805;SDS011;6974;53.606;9.872;2023-11-21T09:03:18;8.30;;;6.37;;
13805;SDS011;6974;53.606;9.872;2023-11-21T09:05:45;7.33;;;6.57;;
13805;SDS011;6974;53.606;9.872;2023-11-21T09:08:12;7.13;;;6.20;;
13805;SDS011;6974;53.606;9.872;2023-11-21T09:10:39;7.77;;;6.70;;
13805;SDS011;6974;53.606;9.872;2023-11-21T09:13:08;6.07;;;4.80;;
13805;SDS011;6974;53.606;9.872;2023-11-21T09:15:35;5.17;;;4.23;;
13805;SDS011;6974;53.606;9.872;2023-11-21T09:18:03;3.90;;;3.50;;
13805;SDS011;6974;53.606;9.872;2023-11-21T09:20:31;4.37;;;3.70;;
13805;SDS011;6974;53.606;9.872;2023-11-21T09:22:58;3.43;;;3.13;;
13805;SDS011;6974;53.606;9.872;2023-11-21T09:25:25;3.80;;;3.37;;
13805;SDS011;6974;53.606;9.872;2023-11-21T09:27:53;3.10;;;2.90;;
13805;SDS011;6974;53.606;9.872;2023-11-21T09:30:21;3.57;;;3.17;;
13805;SDS011;6974;53.606;9.872;2023-11-21T09:32:49;3.73;;;3.33;;
13805;SDS011;6974;53.606;9.872;2023-11-21T09:35:17;4.83;;;4.03;;
13805;SDS011;6974;53.606;9.872;2023-11-21T09:37:44;4.33;;;3.53;;
13805;SDS011;6974;53.606;9.872;2023-11-21T09:40:12;4.87;;;3.40;;
13805;SDS011;6974;53.606;9.872;2023-11-21T09:42:43;5.17;;;3.50;;
13805;SDS011;6974;53.606;9.872;2023-11-21T09:45:17;3.87;;;3.17;;
13805;SDS011;6974;53.606;9.872;2023-11-21T09:47:48;4.53;;;3.50;;
13805;SDS011;6974;53.606;9.872;2023-11-21T09:50:18;5.10;;;3.53;;
13805;SDS011;6974;53.606;9.872;2023-11-21T09:52:49;4.87;;;3.63;;
13805;SDS011;6974;53.606;9.872;2023-11-21T09:55:22;3.70;;;3.30;;
13805;SDS011;6974;53.606;9.872;2023-11-21T09:57:51;4.17;;;3.77;;
13805;SDS011;6974;53.606;9.872;2023-11-21T10:00:19;3.83;;;3.40;;
13805;SDS011;6974;53.606;9.872;2023-11-21T10:02:49;3.63;;;3.17;;
13805;SDS011;6974;53.606;9.872;2023-11-21T10:05:19;3.83;;;3.43;;
13805;SDS011;6974;53.606;9.872;2023-11-21T10:07:47;3.40;;;3.10;;
13805;SDS011;6974;53.606;9.872;2023-11-21T10:10:16;4.30;;;3.07;;
13805;SDS011;6974;53.606;9.872;2023-11-21T10:12:48;4.97;;;3.90;;
13805;SDS011;6974;53.606;9.872;2023-11-21T10:15:18;4.90;;;4.30;;
13805;SDS011;6974;53.606;9.872;2023-11-21T10:17:48;3.87;;;3.53;;
13805;SDS011;6974;53.606;9.872;2023-11-21T10:20:19;3.73;;;3.37;;
13805;SDS011;6974;53.606;9.872;2023-11-21T10:22:46;4.43;;;3.53;;
13805;SDS011;6974;53.606;9.872;2023-11-21T11:13:16;6.57;;;3.43;;
13805;SDS011;6974;53.606;9.872;2023-11-21T11:15:46;4.87;;;3.23;;
13805;SDS011;6974;53.606;9.872;2023-11-21T11:18:14;4.43;;;3.33;;
13805;SDS011;6974;53.606;9.872;2023-11-21T11:20:43;4.60;;;3.43;;
13805;SDS011;6974;53.606;9.872;2023-11-21T11:23:20;4.03;;;3.60;;
13805;SDS011;6974;53.606;9.872;2023-11-21T14:10:41;5.43;;;3.80;;
13805;SDS011;6974;53.606;9.872;2023-11-21T14:13:12;4.20;;;3.73;;
13805;SDS011;6974;53.606;9.872;2023-11-21T14:15:41;4.90;;;3.87;;
13805;SDS011;6974;53.606;9.872;2023-11-21T14:18:11;5.40;;;4.20;;
13805;SDS011;6974;53.606;9.872;2023-11-21T14:20:41;4.47;;;4.07;;
13805;SDS011;6974;53.606;9.872;2023-11-21T14:23:09;5.13;;;3.73;;
13805;SDS011;6974;53.606;9.872;2023-11-21T14:25:37;4.40;;;3.90;;
13805;SDS011;6974;53.606;9.872;2023-11-21T14:28:19;4.67;;;3.50;;
13805;SDS011;6974;53.606;9.872;2023-11-21T14:30:57;5.63;;;4.10;;
13805;SDS011;6974;53.606;9.872;2023-11-21T14:33:31;3.83;;;3.50;;
13805;SDS011;6974;53.606;9.872;2023-11-21T14:35:58;4.87;;;3.60;;
13805;SDS011;6974;53.606;9.872;2023-11-21T14:38:25;4.50;;;3.83;;
13805;SDS011;6974;53.606;9.872;2023-11-21T14:40:53;5.27;;;4.03;;
13805;SDS011;6974;53.606;9.872;2023-11-21T14:43:21;4.37;;;3.37;;
13805;SDS011;6974;53.606;9.872;2023-11-21T14:45:49;4.27;;;3.40;;
13805;SDS011;6974;53.606;9.872;2023-11-21T14:48:17;3.43;;;3.10;;
13805;SDS011;6974;53.606;9.872;2023-11-21T14:50:58;5.17;;;3.43;;
13805;SDS011;6974;53.606;9.872;2023-11-21T14:53:39;4.00;;;3.57;;
13805;SDS011;6974;53.606;9.872;2023-11-21T14:56:18;4.60;;;3.57;;
13805;SDS011;6974;53.606;9.872;2023-11-21T14:58:52;3.10;;;2.80;;
13805;SDS011;6974;53.606;9.872;2023-11-21T15:01:22;3.30;;;3.00;;
13805;SDS011;6974;53.606;9.872;2023-11-21T15:04:01;3.30;;;2.93;;
13805;SDS011;6974;53.606;9.872;2023-11-21T15:06:31;4.30;;;2.70;;
13805;SDS011;6974;53.606;9.872;2023-11-21T15:08:57;4.07;;;3.50;;
13805;SDS011;6974;53.606;9.872;2023-11-21T15:11:41;3.97;;;3.37;;
13805;SDS011;6974;53.606;9.872;2023-11-21T15:14:09;4.43;;;2.90;;
13805;SDS011;6974;53.606;9.872;2023-11-21T15:16:38;3.10;;;2.80;;
13805;SDS011;6974;53.606;9.872;2023-11-21T15:19:07;3.07;;;2.77;;
13805;SDS011;6974;53.606;9.872;2023-11-21T15:21:37;3.60;;;3.00;;
13805;SDS011;6974;53.606;9.872;2023-11-21T15:24:04;4.43;;;3.30;;
13805;SDS011;6974;53.606;9.872;2023-11-21T15:26:33;3.10;;;2.80;;
13805;SDS011;6974;53.606;9.872;2023-11-21T15:29:00;4.50;;;3.03;;
13805;SDS011;6974;53.606;9.872;2023-11-21T15:31:28;3.70;;;3.27;;
13805;SDS011;6974;53.606;9.872;2023-11-21T15:33:55;4.00;;;3.47;;
13805;SDS011;6974;53.606;9.872;2023-11-21T15:36:24;4.53;;;3.30;;
13805;SDS011;6974;53.606;9.872;2023-11-21T15:38:51;3.83;;;3.13;;
13805;SDS011;6974;53.606;9.872;2023-11-21T15:41:21;3.70;;;3.07;;
13805;SDS011;6974;53.606;9.872;2023-11-21T15:43:47;4.67;;;3.50;;
13805;SDS011;6974;53.606;9.872;2023-11-21T15:50:21;4.97;;;4.27;;
13805;SDS011;6974;53.606;9.872;2023-11-21T15:53:33;6.03;;;3.90;;
13805;SDS011;6974;53.606;9.872;2023-11-21T15:55:59;4.77;;;4.17;;
13805;SDS011;6974;53.606;9.872;2023-11-21T15:58:26;5.83;;;4.43;;
13805;SDS011;6974;53.606;9.872;2023-11-21T16:00:54;5.87;;;5.20;;
13805;SDS011;6974;53.606;9.872;2023-11-21T16:03:22;5.77;;;4.60;;
13805;SDS011;6974;53.606;9.872;2023-11-21T16:05:50;5.07;;;4.17;;
13805;SDS011;6974;53.606;9.872;2023-11-21T16:08:17;4.87;;;3.70;;
13805;SDS011;6974;53.606;9.872;2023-11-21T16:10:44;6.10;;;5.20;;
13805;SDS011;6974;53.606;9.872;2023-11-21T16:13:11;6.67;;;5.37;;
13805;SDS011;6974;53.606;9.872;2023-11-21T16:15:38;6.30;;;5.17;;
13805;SDS011;6974;53.606;9.872;2023-11-21T16:18:05;6.43;;;5.10;;
13805;SDS011;6974;53.606;9.872;2023-11-21T16:20:32;5.20;;;4.70;;
13805;SDS011;6974;53.606;9.872;2023-11-21T16:23:00;5.90;;;5.17;;
13805;SDS011;6974;53.606;9.872;2023-11-21T16:25:28;5.37;;;4.87;;
13805;SDS011;6974;53.606;9.872;2023-11-21T16:27:55;5.23;;;4.80;;
13805;SDS011;6974;53.606;9.872;2023-11-21T16:30:24;7.53;;;5.77;;
13805;SDS011;6974;53.606;9.872;2023-11-21T16:32:51;5.83;;;5.23;;
13805;SDS011;6974;53.606;9.872;2023-11-21T16:35:19;7.40;;;5.60;;
13805;SDS011;6974;53.606;9.872;2023-11-21T16:37:46;6.67;;;5.50;;
13805;SDS011;6974;53.606;9.872;2023-11-21T16:40:15;6.57;;;5.50;;
13805;SDS011;6974;53.606;9.872;2023-11-21T16:42:44;8.30;;;5.77;;
13805;SDS011;6974;53.606;9.872;2023-11-21T16:45:11;8.10;;;6.20;;
13805;SDS011;6974;53.606;9.872;2023-11-21T16:47:38;7.53;;;6.07;;
13805;SDS011;6974;53.606;9.872;2023-11-21T16:50:08;7.30;;;5.83;;
13805;SDS011;6974;53.606;9.872;2023-11-21T16:52:35;7.47;;;6.10;;
13805;SDS011;6974;53.606;9.872;2023-11-21T16:55:03;7.70;;;5.90;;
13805;SDS011;6974;53.606;9.872;2023-11-21T16:57:32;7.67;;;6.60;;
13805;SDS011;6974;53.606;9.872;2023-11-21T16:59:59;9.43;;;7.17;;
13805;SDS011;6974;53.606;9.872;2023-11-21T17:02:25;8.87;;;7.17;;
13805;SDS011;6974;53.606;9.872;2023-11-21T17:04:52;9.53;;;7.13;;
13805;SDS011;6974;53.606;9.872;2023-11-21T17:07:19;9.30;;;7.13;;
13805;SDS011;6974;53.606;9.872;2023-11-21T17:09:46;8.63;;;6.63;;
13805;SDS011;6974;53.606;9.872;2023-11-21T17:12:13;12.33;;;8.20;;
13805;SDS011;6974;53.606;9.872;2023-11-21T17:14:41;9.63;;;7.37;;
13805;SDS011;6974;53.606;9.872;2023-11-21T17:17:09;9.43;;;7.23;;
13805;SDS011;6974;53.606;9.872;2023-11-21T17:19:38;8.63;;;6.27;;
13805;SDS011;6974;53.606;9.872;2023-11-21T17:22:06;9.30;;;6.10;;
13805;SDS011;6974;53.606;9.872;2023-11-21T17:24:33;6.83;;;5.33;;
13805;SDS011;6974;53.606;9.872;2023-11-21T17:27:01;9.10;;;5.57;;
13805;SDS011;6974;53.606;9.872;2023-11-21T17:29:28;7.40;;;5.23;;
13805;SDS011;6974;53.606;9.872;2023-11-21T17:31:56;8.03;;;4.90;;
13805;SDS011;6974;53.606;9.872;2023-11-21T17:34:23;5.63;;;5.03;;
13805;SDS011;6974;53.606;9.872;2023-11-21T17:36:50;8.97;;;5.20;;
13805;SDS011;6974;53.606;9.872;2023-11-21T17:39:17;6.63;;;5.30;;
13805;SDS011;6974;53.606;9.872;2023-11-21T17:41:44;5.70;;;5.10;;
13805;SDS011;6974;53.606;9.872;2023-11-21T17:44:11;7.03;;;5.03;;
13805;SDS011;6974;53.606;9.872;2023-11-21T17:46:38;7.43;;;5.23;;
13805;SDS011;6974;53.606;9.872;2023-11-21T17:49:06;7.77;;;5.20;;
13805;SDS011;6974;53.606;9.872;2023-11-21T17:51:36;6.67;;;5.50;;
13805;SDS011;6974;53.606;9.872;2023-11-21T17:54:04;5.80;;;5.00;;
13805;SDS011;6974;53.606;9.872;2023-11-21T17:56:33;6.83;;;5.60;;
13805;SDS011;6974;53.606;9.872;2023-11-21T17:59:01;6.23;;;5.63;;
13805;SDS011;6974;53.606;9.872;2023-11-21T18:01:29;7.47;;;5.60;;
13805;SDS011;6974;53.606;9.872;2023-11-21T18:04:02;6.07;;;5.20;;
13805;SDS011;6974;53.606;9.872;2023-11-21T18:06:32;5.37;;;4.87;;
13805;SDS011;6974;53.606;9.872;2023-11-21T18:08:59;6.80;;;5.27;;
13805;SDS011;6974;53.606;9.872;2023-11-21T18:11:33;6.87;;;4.97;;
13805;SDS011;6974;53.606;9.872;2023-11-21T18:14:00;5.77;;;5.17;;
13805;SDS011;6974;53.606;9.872;2023-11-21T18:16:31;7.70;;;6.40;;
13805;SDS011;6974;53.606;9.872;2023-11-21T18:18:57;13.97;;;8.20;;
13805;SDS011;6974;53.606;9.872;2023-11-21T18:21:24;10.50;;;7.97;;
13805;SDS011;6974;53.606;9.872;2023-11-21T18:23:52;11.60;;;7.07;;
13805;SDS011;6974;53.606;9.872;2023-11-21T18:26:19;10.00;;;7.30;;
13805;SDS011;6974;53.606;9.872;2023-11-21T18:28:47;10.97;;;7.77;;
13805;SDS011;6974;53.606;9.872;2023-11-21T18:31:21;10.87;;;8.87;;
13805;SDS011;6974;53.606;9.872;2023-11-21T18:33:47;11.87;;;9.00;;
13805;SDS011;6974;53.606;9.872;2023-11-21T18:36:14;9.27;;;8.33;;
13805;SDS011;6974;53.606;9.872;2023-11-21T18:38:41;9.27;;;8.13;;